createdAt,value
2023-08-02T00:00:20.915Z,98962.88
2023-08-02T00:02:49.637Z,98971.13
2023-08-02T00:05:18.357Z,98966.50
2023-08-02T00:07:46.840Z,98981.28
2023-08-02T00:10:15.282Z,98987.09
2023-08-02T00:12:43.622Z,98984.69
2023-08-02T00:15:11.791Z,98980.41
2023-08-02T00:17:40.318Z,98986.69
2023-08-02T00:20:09.106Z,98995.19
2023-08-02T00:22:37.721Z,99000.66
2023-08-02T00:25:06.616Z,99002.28
2023-08-02T00:27:34.919Z,99005.94
2023-08-02T00:30:03.325Z,99009.00
2023-08-02T00:32:31.930Z,99020.53
2023-08-02T00:35:00.984Z,99020.50
2023-08-02T00:37:30.558Z,99021.75
2023-08-02T00:39:59.067Z,99022.97
2023-08-02T00:42:27.435Z,99014.28
2023-08-02T00:44:55.975Z,99020.97
2023-08-02T00:47:26.498Z,99021.56
2023-08-02T00:49:55.357Z,99021.19
2023-08-02T00:52:23.620Z,99016.13
2023-08-02T00:54:52.211Z,99016.72
2023-08-02T00:57:20.422Z,99026.47
2023-08-02T00:59:48.829Z,99023.81
2023-08-02T01:02:17.264Z,99020.00
2023-08-02T01:04:45.952Z,99016.13
2023-08-02T01:07:58.024Z,99012.47
2023-08-02T01:10:49.540Z,99022.44
2023-08-02T01:13:20.143Z,99018.37
2023-08-02T01:15:49.700Z,99005.25
2023-08-02T01:18:18.060Z,99009.50
2023-08-02T01:20:46.610Z,98998.03
2023-08-02T01:23:15.135Z,99008.31
2023-08-02T01:25:45.952Z,99015.00
2023-08-02T01:28:20.232Z,99016.00
2023-08-02T01:30:51.692Z,99011.38
2023-08-02T01:33:23.713Z,99017.06
2023-08-02T01:35:52.105Z,99015.41
2023-08-02T01:38:20.840Z,99024.09
2023-08-02T01:40:49.360Z,99026.34
2023-08-02T01:43:18.263Z,99019.06
2023-08-02T01:45:46.808Z,99021.88
2023-08-02T01:48:15.164Z,99027.31
2023-08-02T01:50:43.322Z,99028.72
2023-08-02T01:53:11.915Z,99027.50
2023-08-02T01:55:40.151Z,99036.03
2023-08-02T01:58:08.342Z,99029.34
2023-08-02T02:00:36.863Z,99033.97
2023-08-02T02:03:05.428Z,99040.25
2023-08-02T02:05:33.728Z,99037.00
2023-08-02T02:08:01.883Z,99041.47
2023-08-02T02:10:30.817Z,99035.44
2023-08-02T02:12:59.020Z,99044.69
2023-08-02T02:15:27.433Z,99052.59
2023-08-02T02:17:56.054Z,99052.38
2023-08-02T02:20:24.605Z,99049.72
2023-08-02T02:22:52.970Z,99048.31
2023-08-02T02:25:21.559Z,99046.13
2023-08-02T02:27:50.121Z,99043.91
2023-08-02T02:30:18.288Z,99047.34
2023-08-02T02:32:46.649Z,99050.78
2023-08-02T02:35:15.507Z,99054.63
2023-08-02T02:37:43.726Z,99046.75
2023-08-02T02:40:12.264Z,99066.38
2023-08-02T02:42:42.176Z,99068.19
2023-08-02T02:45:10.772Z,99064.94
2023-08-02T02:47:39.188Z,99068.97
2023-08-02T02:50:08.595Z,99066.16
2023-08-02T02:52:37.175Z,99068.00
2023-08-02T02:55:06.059Z,99073.44
2023-08-02T02:57:34.466Z,99065.94
2023-08-02T03:00:04.185Z,99081.75
2023-08-02T03:02:33.377Z,99081.72
2023-08-02T03:05:01.900Z,99083.12
2023-08-02T03:07:30.206Z,99084.53
2023-08-02T03:09:58.537Z,99078.50
2023-08-02T03:12:26.948Z,99090.41
2023-08-02T03:14:55.453Z,99087.78
2023-08-02T03:17:23.868Z,99090.41
2023-08-02T03:19:52.246Z,99092.44
2023-08-02T03:22:20.629Z,99091.63
2023-08-02T03:24:48.920Z,99100.50
2023-08-02T03:27:17.426Z,99112.59
2023-08-02T03:29:45.597Z,99110.19
2023-08-02T03:32:14.061Z,99111.59
2023-08-02T03:34:42.548Z,99117.84
2023-08-02T03:37:10.783Z,99123.97
2023-08-02T03:39:39.186Z,99125.59
2023-08-02T03:42:08.471Z,99117.06
2023-08-02T03:44:36.875Z,99120.72
2023-08-02T03:47:05.476Z,99138.31
2023-08-02T03:49:33.987Z,99133.63
2023-08-02T03:52:02.222Z,99133.00
2023-08-02T03:54:30.425Z,99136.03
2023-08-02T03:56:58.882Z,99130.97
2023-08-02T03:59:27.076Z,99133.97
2023-08-02T04:01:55.452Z,99136.59
2023-08-02T04:04:24.159Z,99124.66
2023-08-02T04:06:52.335Z,99133.19
2023-08-02T04:09:20.954Z,99132.56
2023-08-02T04:11:49.606Z,99127.50
2023-08-02T04:14:17.843Z,99131.31
2023-08-02T04:16:46.699Z,99135.75
2023-08-02T04:19:15.338Z,99135.72
2023-08-02T04:21:43.662Z,99133.06
2023-08-02T04:24:12.357Z,99136.50
2023-08-02T04:26:41.135Z,99123.94
2023-08-02T04:29:09.862Z,99130.19
2023-08-02T04:31:38.385Z,99126.72
2023-08-02T04:34:06.900Z,99126.47
2023-08-02T04:36:35.337Z,99128.12
2023-08-02T04:39:05.334Z,99128.75
2023-08-02T04:41:34.449Z,99137.53
2023-08-02T04:44:02.870Z,99137.72
2023-08-02T04:46:31.362Z,99129.84
2023-08-02T04:48:59.793Z,99134.06
2023-08-02T04:51:27.934Z,99136.28
2023-08-02T04:53:56.199Z,99135.22
2023-08-02T04:56:24.794Z,99138.94
2023-08-02T04:58:52.960Z,99130.22
2023-08-02T05:01:21.493Z,99133.69
2023-08-02T05:03:50.100Z,99123.94
2023-08-02T05:06:18.506Z,99129.00
2023-08-02T05:08:46.888Z,99140.34
2023-08-02T05:11:15.447Z,99139.91
2023-08-02T05:13:43.846Z,99139.69
2023-08-02T05:16:16.180Z,99136.44
2023-08-02T05:18:44.699Z,99129.12
2023-08-02T05:21:20.043Z,99142.06
2023-08-02T05:23:48.533Z,99144.50
2023-08-02T05:26:16.890Z,99137.81
2023-08-02T05:28:45.363Z,99138.19
2023-08-02T05:31:15.354Z,99143.25
2023-08-02T05:33:44.373Z,99146.87
2023-08-02T05:36:14.075Z,99143.00
2023-08-02T05:38:43.304Z,99133.00
2023-08-02T05:41:11.609Z,99130.16
2023-08-02T05:43:43.898Z,99135.03
2023-08-02T05:46:12.776Z,99140.91
2023-08-02T05:48:40.970Z,99145.75
2023-08-02T05:51:09.234Z,99153.19
2023-08-02T05:53:37.721Z,99144.84
2023-08-02T05:56:05.947Z,99143.03
2023-08-02T05:58:34.185Z,99151.91
2023-08-02T06:01:05.497Z,99151.41
2023-08-02T06:03:35.923Z,99153.78
2023-08-02T06:06:04.430Z,99157.13
2023-08-02T06:08:32.809Z,99162.94
2023-08-02T06:11:04.140Z,99165.16
2023-08-02T06:13:32.388Z,99164.06
2023-08-02T06:16:00.888Z,99175.16
2023-08-02T06:18:29.098Z,99167.25
2023-08-02T06:20:57.362Z,99169.00
2023-08-02T06:23:25.782Z,99170.97
2023-08-02T06:25:54.093Z,99168.50
2023-08-02T06:28:23.115Z,99176.94
2023-08-02T06:30:51.624Z,99182.16
2023-08-02T06:33:20.223Z,99181.94
2023-08-02T06:35:48.559Z,99185.34
2023-08-02T06:38:17.192Z,99182.41
2023-08-02T06:40:45.618Z,99188.03
2023-08-02T06:43:15.840Z,99195.06
2023-08-02T06:45:48.525Z,99198.66
2023-08-02T06:48:20.499Z,99196.38
2023-08-02T06:50:49.378Z,99199.09
2023-08-02T06:53:17.808Z,99198.44
2023-08-02T06:55:46.250Z,99197.16
2023-08-02T06:58:14.858Z,99193.44
2023-08-02T07:00:43.455Z,99192.91
2023-08-02T07:03:11.725Z,99186.06
2023-08-02T07:05:40.630Z,99195.16
2023-08-02T07:08:08.949Z,99195.28
2023-08-02T07:10:37.159Z,99193.94
2023-08-02T07:13:05.584Z,99195.09
2023-08-02T07:15:34.306Z,99198.50
2023-08-02T07:18:02.506Z,99198.97
2023-08-02T07:20:30.971Z,99202.47
2023-08-02T07:22:59.157Z,99194.91
2023-08-02T07:25:27.323Z,99192.47
2023-08-02T07:27:55.861Z,99202.41
2023-08-02T07:30:24.545Z,99203.97
2023-08-02T07:32:52.871Z,99209.69
2023-08-02T07:35:21.907Z,99206.88
2023-08-02T07:37:50.231Z,99209.94
2023-08-02T07:40:18.698Z,99210.19
2023-08-02T07:42:47.402Z,99205.69
2023-08-02T07:45:15.651Z,99200.50
2023-08-02T07:47:43.781Z,99208.63
2023-08-02T07:50:12.513Z,99213.25
2023-08-02T07:52:41.117Z,99215.19
2023-08-02T07:55:09.493Z,99208.44
2023-08-02T07:57:37.942Z,99212.44
2023-08-02T08:00:06.709Z,99213.03
2023-08-02T08:02:40.224Z,99213.28
2023-08-02T08:05:09.332Z,99215.25
2023-08-02T08:07:37.664Z,99211.38
2023-08-02T08:10:06.501Z,99210.91
2023-08-02T08:12:37.597Z,99209.53
2023-08-02T08:15:06.816Z,99214.06
2023-08-02T08:17:35.302Z,99211.59
2023-08-02T08:20:07.064Z,99206.19
2023-08-02T08:22:35.779Z,99210.72
2023-08-02T08:25:04.107Z,99213.34
2023-08-02T08:27:32.445Z,99212.34
2023-08-02T08:30:00.758Z,99208.03
2023-08-02T08:32:29.265Z,99205.84
2023-08-02T08:34:57.700Z,99206.56
2023-08-02T08:37:26.866Z,99208.25
2023-08-02T08:40:12.084Z,99199.53
2023-08-02T08:42:53.338Z,99199.25
2023-08-02T08:45:23.744Z,99203.00
2023-08-02T08:47:53.709Z,99216.84
2023-08-02T08:50:22.985Z,99222.91
2023-08-02T08:52:52.714Z,99209.25
2023-08-02T08:55:22.371Z,99207.94
2023-08-02T08:57:51.655Z,99215.22
2023-08-02T09:00:20.539Z,99207.16
2023-08-02T09:02:49.145Z,99204.81
2023-08-02T09:05:17.950Z,99205.59
2023-08-02T09:07:46.617Z,99199.94
2023-08-02T09:10:14.905Z,99197.03
2023-08-02T09:12:45.870Z,99197.00
2023-08-02T09:15:16.009Z,99202.66
2023-08-02T09:17:50.609Z,99190.91
2023-08-02T09:20:22.035Z,99192.22
2023-08-02T09:22:50.749Z,99194.88
2023-08-02T09:25:28.389Z,99188.22
2023-08-02T09:28:00.087Z,99199.16
2023-08-02T09:30:30.753Z,99199.34
2023-08-02T09:33:01.476Z,99205.50
2023-08-02T09:35:49.005Z,99198.84
2023-08-02T09:38:18.008Z,99203.97
2023-08-02T09:43:21.081Z,99206.41
2023-08-02T09:45:49.766Z,99205.03
2023-08-02T09:48:17.979Z,99204.75
2023-08-02T09:50:54.958Z,99198.38
2023-08-02T09:53:24.943Z,99202.09
2023-08-02T09:55:57.563Z,99212.78
2023-08-02T09:58:27.149Z,99220.78
2023-08-02T10:00:55.984Z,99217.88
2023-08-02T10:03:27.871Z,99217.31
2023-08-02T10:05:59.414Z,99216.78
2023-08-02T10:08:31.155Z,99217.59
2023-08-02T10:11:01.230Z,99214.91
2023-08-02T10:13:34.064Z,99206.66
2023-08-02T10:16:04.375Z,99203.41
2023-08-02T10:18:35.465Z,99204.47
2023-08-02T10:21:04.914Z,99211.19
2023-08-02T10:23:34.619Z,99199.97
2023-08-02T10:26:03.687Z,99202.84
2023-08-02T10:28:33.294Z,99206.34
2023-08-02T10:31:04.106Z,99201.00
2023-08-02T10:33:32.338Z,99197.03
2023-08-02T10:36:00.541Z,99186.59
2023-08-02T10:38:41.300Z,99195.09
2023-08-02T10:41:19.883Z,99197.50
2023-08-02T10:43:54.362Z,99188.16
2023-08-02T10:46:27.956Z,99187.91
2023-08-02T10:49:17.223Z,99188.69
2023-08-02T10:51:46.650Z,99176.97
2023-08-02T10:54:27.090Z,99182.28
2023-08-02T10:56:57.139Z,99176.66
2023-08-02T10:59:25.534Z,99176.34
2023-08-02T11:02:10.874Z,99174.53
2023-08-02T11:04:46.143Z,99176.44
2023-08-02T11:07:20.053Z,99171.78
2023-08-02T11:09:53.219Z,99172.66
2023-08-02T11:12:23.597Z,99165.06
2023-08-02T11:14:53.562Z,99162.63
2023-08-02T11:22:36.754Z,99141.00
2023-08-02T11:25:08.031Z,99151.06
2023-08-02T11:30:09.318Z,99132.78
2023-08-02T11:32:48.124Z,99129.25
2023-08-02T11:35:20.698Z,99129.81
2023-08-02T11:37:49.117Z,99121.59
2023-08-02T11:42:55.173Z,99112.53
2023-08-02T11:45:32.476Z,99115.19
2023-08-02T11:50:34.470Z,99097.44
2023-08-02T11:53:10.052Z,99112.31
2023-08-02T11:55:41.237Z,99114.50
2023-08-02T11:58:10.401Z,99105.62
2023-08-02T12:00:39.254Z,99101.94
2023-08-02T12:03:17.694Z,99108.06
2023-08-02T12:05:46.289Z,99105.94
2023-08-02T12:08:18.639Z,99100.34
2023-08-02T12:10:48.665Z,99098.00
2023-08-02T12:13:19.158Z,99090.78
2023-08-02T12:16:04.828Z,99092.94
2023-08-02T12:18:33.410Z,99096.09
2023-08-02T12:21:16.136Z,99092.91
2023-08-02T12:23:44.686Z,99110.28
2023-08-02T12:26:13.010Z,99104.91
2023-08-02T12:28:47.959Z,99105.44
2023-08-02T12:31:18.164Z,99099.28
2023-08-02T12:33:46.489Z,99099.28
2023-08-02T12:36:31.760Z,99099.09
2023-08-02T12:39:00.368Z,99097.78
2023-08-02T12:41:31.705Z,99089.22
2023-08-02T12:44:04.260Z,99094.25
2023-08-02T12:46:34.044Z,99090.56
2023-08-02T12:49:02.711Z,99083.91
2023-08-02T12:51:30.975Z,99085.50
2023-08-02T12:54:00.247Z,99081.47
2023-08-02T12:56:28.894Z,99083.62
2023-08-02T12:58:57.112Z,99085.22
2023-08-02T13:01:25.396Z,99088.44
2023-08-02T13:03:54.345Z,99086.31
2023-08-02T13:06:22.529Z,99087.37
2023-08-02T13:08:51.329Z,99084.72
2023-08-02T13:11:20.889Z,99080.97
2023-08-02T13:13:48.984Z,99084.72
2023-08-02T13:16:17.372Z,99088.97
2023-08-02T13:18:46.331Z,99095.66
2023-08-02T13:21:14.719Z,99093.75
2023-08-02T13:23:43.082Z,99094.31
2023-08-02T13:26:11.676Z,99080.91
2023-08-02T13:28:39.888Z,99086.81
2023-08-02T13:31:08.623Z,99077.50
2023-08-02T13:33:37.208Z,99075.09
2023-08-02T13:36:05.775Z,99075.09
2023-08-02T13:38:33.979Z,99069.50
2023-08-02T13:41:03.053Z,99060.69
2023-08-02T13:43:31.288Z,99056.97
2023-08-02T13:45:59.693Z,99068.72
2023-08-02T13:48:28.415Z,99055.63
2023-08-02T13:50:56.581Z,99058.56
2023-08-02T13:53:25.099Z,99052.72
2023-08-02T13:55:53.657Z,99052.97
2023-08-02T13:58:21.896Z,99049.75
2023-08-02T14:00:50.298Z,99048.72
2023-08-02T14:03:19.380Z,99039.38
2023-08-02T14:05:47.558Z,99028.97
2023-08-02T14:08:16.814Z,99030.84
2023-08-02T14:10:47.529Z,99030.31
2023-08-02T14:13:17.337Z,99043.34
2023-08-02T14:15:45.936Z,99027.06
2023-08-02T14:18:14.260Z,99024.91
2023-08-02T14:20:42.365Z,99021.16
2023-08-02T14:23:10.912Z,99011.56
2023-08-02T14:25:39.151Z,99007.31
2023-08-02T14:28:09.636Z,99008.91
2023-08-02T14:30:38.933Z,99007.59
2023-08-02T14:33:07.256Z,99004.41
2023-08-02T14:35:35.492Z,98998.22
2023-08-02T14:38:06.966Z,98993.41
2023-08-02T14:40:35.541Z,98993.44
2023-08-02T14:43:04.145Z,98988.66
2023-08-02T14:45:32.583Z,98981.50
2023-08-02T14:48:00.884Z,98981.50
2023-08-02T14:50:29.463Z,98984.44
2023-08-02T14:52:57.638Z,98990.56
2023-08-02T14:55:26.290Z,98998.56
2023-08-02T14:57:54.856Z,98992.44
2023-08-02T15:00:23.150Z,98996.69
2023-08-02T15:02:51.506Z,98998.81
2023-08-02T15:05:21.391Z,99004.16
2023-08-02T15:07:49.840Z,98999.91
2023-08-02T15:10:18.276Z,98991.91
2023-08-02T15:12:47.075Z,98975.38
2023-08-02T15:15:15.875Z,98971.09
2023-08-02T15:17:45.449Z,98971.59
2023-08-02T15:20:13.983Z,98979.09
2023-08-02T15:22:42.277Z,98974.03
2023-08-02T15:25:10.816Z,98966.53
2023-08-02T15:27:39.327Z,98970.53
2023-08-02T15:30:08.299Z,98959.59
2023-08-02T15:32:36.636Z,98954.81
2023-08-02T15:35:05.308Z,98944.97
2023-08-02T15:37:33.652Z,98946.53
2023-08-02T15:40:02.007Z,98950.00
2023-08-02T15:42:30.576Z,98937.75
2023-08-02T15:45:00.836Z,98939.88
2023-08-02T15:47:33.447Z,98936.94
2023-08-02T15:50:01.929Z,98934.03
2023-08-02T15:52:30.527Z,98928.44
2023-08-02T15:54:58.789Z,98935.38
2023-08-02T15:57:27.796Z,98933.53
2023-08-02T15:59:56.320Z,98940.47
2023-08-02T16:02:24.580Z,98941.78
2023-08-02T16:04:53.221Z,98937.56
2023-08-02T16:07:22.138Z,98938.06
2023-08-02T16:09:50.459Z,98942.84
2023-08-02T16:12:19.900Z,98938.56
2023-08-02T16:14:48.108Z,98744.69
2023-08-02T16:17:16.628Z,98933.53
2023-08-02T16:19:45.593Z,98937.28
2023-08-02T16:22:14.205Z,98936.72
2023-08-02T16:24:42.493Z,98935.41
2023-08-02T16:27:10.870Z,98933.78
2023-08-02T16:29:39.129Z,98930.88
2023-08-02T16:32:07.420Z,98926.87
2023-08-02T16:34:35.922Z,98928.75
2023-08-02T16:37:04.419Z,98926.06
2023-08-02T16:39:32.501Z,98918.84
2023-08-02T16:42:00.936Z,98926.84
2023-08-02T16:44:29.330Z,98933.25
2023-08-02T16:46:57.590Z,98922.88
2023-08-02T16:49:26.193Z,98929.53
2023-08-02T16:51:54.480Z,98924.22
2023-08-02T16:54:23.068Z,98925.00
2023-08-02T16:56:52.573Z,98926.59
2023-08-02T16:59:21.598Z,98926.87
2023-08-02T17:01:50.255Z,98921.25
2023-08-02T17:04:18.969Z,98921.81
2023-08-02T17:06:47.235Z,98919.66
2023-08-02T17:09:15.614Z,98920.13
2023-08-02T17:11:45.040Z,98927.06
2023-08-02T17:14:13.775Z,98928.66
2023-08-02T17:16:42.055Z,98923.03
2023-08-02T17:19:10.905Z,98914.00
2023-08-02T17:21:39.289Z,98916.41
2023-08-02T17:24:07.638Z,98911.06
2023-08-02T17:26:36.166Z,98906.50
2023-08-02T17:29:04.431Z,98910.47
2023-08-02T17:31:32.648Z,98902.50
2023-08-02T17:34:01.426Z,98910.47
2023-08-02T17:36:30.212Z,98899.25
2023-08-02T17:38:58.469Z,98909.63
2023-08-02T17:41:27.859Z,98898.69
2023-08-02T17:43:56.494Z,98909.56
2023-08-02T17:46:26.271Z,98904.25
2023-08-02T17:48:54.944Z,98901.59
2023-08-02T17:51:23.349Z,98898.59
2023-08-02T17:53:54.013Z,98898.81
2023-08-02T17:56:22.766Z,98899.88
2023-08-02T17:58:51.108Z,98899.31
2023-08-02T18:01:23.049Z,98899.31
2023-08-02T18:03:52.347Z,98906.44
2023-08-02T18:06:23.174Z,98895.81
2023-08-02T18:08:51.801Z,98905.63
2023-08-02T18:11:23.025Z,98908.25
2023-08-02T18:13:52.173Z,98901.06
2023-08-02T18:16:20.446Z,98915.12
2023-08-02T18:18:48.882Z,98909.00
2023-08-02T18:21:17.786Z,98903.87
2023-08-02T18:23:46.072Z,98903.31
2023-08-02T18:26:16.213Z,98911.81
2023-08-02T18:28:44.828Z,98908.75
2023-08-02T18:31:13.182Z,98906.62
2023-08-02T18:33:41.562Z,98904.75
2023-08-02T18:36:14.854Z,98909.75
2023-08-02T18:38:43.910Z,98900.16
2023-08-02T18:41:23.664Z,98905.16
2023-08-02T18:43:53.095Z,98905.94
2023-08-02T18:46:25.119Z,98900.06
2023-08-02T18:48:53.675Z,98896.03
2023-08-02T18:51:23.140Z,98904.75
2023-08-02T18:53:53.290Z,98902.91
2023-08-02T18:56:23.822Z,98904.72
2023-08-02T18:58:53.059Z,98897.47
2023-08-02T19:01:21.844Z,98877.78
2023-08-02T19:03:51.969Z,98871.91
2023-08-02T19:06:20.444Z,98877.72
2023-08-02T19:08:50.883Z,98891.50
2023-08-02T19:11:24.739Z,98895.91
2023-08-02T19:13:53.841Z,98909.41
2023-08-02T19:16:23.183Z,98912.59
2023-08-02T19:18:51.841Z,98912.91
2023-08-02T19:21:20.541Z,98916.69
2023-08-02T19:23:48.832Z,98920.38
2023-08-02T19:26:18.149Z,98925.09
2023-08-02T19:28:47.307Z,98924.69
2023-08-02T19:31:15.725Z,98924.13
2023-08-02T19:33:46.584Z,98929.13
2023-08-02T19:36:20.405Z,98923.34
2023-08-02T19:38:49.713Z,98924.13
2023-08-02T19:41:30.428Z,98921.47
2023-08-02T19:43:59.840Z,98922.47
2023-08-02T19:46:28.762Z,98926.97
2023-08-02T19:48:58.281Z,98918.94
2023-08-02T19:51:28.036Z,98927.75
2023-08-02T19:53:56.786Z,98925.78
2023-08-02T19:56:25.081Z,98926.22
2023-08-02T19:58:59.274Z,98927.50
2023-08-02T20:01:30.046Z,98926.72
2023-08-02T20:03:58.997Z,98929.81
2023-08-02T20:06:28.146Z,98922.88
2023-08-02T20:08:56.623Z,98928.66
2023-08-02T20:11:25.206Z,98918.31
2023-08-02T20:13:54.386Z,98929.94
2023-08-02T20:16:24.466Z,98932.50
2023-08-02T20:18:54.538Z,98918.47
2023-08-02T20:21:24.576Z,98926.84
2023-08-02T20:23:59.373Z,98929.38
2023-08-02T20:26:28.194Z,98929.06
2023-08-02T20:28:57.492Z,98933.87
2023-08-02T20:31:29.000Z,98932.84
2023-08-02T20:33:57.890Z,98925.78
2023-08-02T20:36:26.169Z,98927.13
2023-08-02T20:38:56.196Z,98925.87
2023-08-02T20:41:27.502Z,98927.22
2023-08-02T20:43:57.763Z,98918.06
2023-08-02T20:46:28.557Z,98915.97
2023-08-02T20:48:58.976Z,98914.13
2023-08-02T20:51:39.049Z,98913.22
2023-08-02T20:54:09.281Z,98910.28
2023-08-02T20:56:38.735Z,98917.03
2023-08-02T20:59:15.368Z,98915.75
2023-08-02T21:01:45.770Z,98912.75
2023-08-02T21:04:15.009Z,98913.59
2023-08-02T21:06:57.196Z,98911.09
2023-08-02T21:09:29.763Z,98920.00
2023-08-02T21:11:58.185Z,98915.75
2023-08-02T21:14:29.000Z,98914.16
2023-08-02T21:16:57.756Z,98906.22
2023-08-02T21:19:27.795Z,98903.66
2023-08-02T21:21:59.939Z,98907.41
2023-08-02T21:24:28.590Z,98906.81
2023-08-02T21:26:56.814Z,98910.84
2023-08-02T21:29:25.083Z,98901.78
2023-08-02T21:31:53.833Z,98901.31
2023-08-02T21:34:23.129Z,98898.34
2023-08-02T21:36:51.278Z,98892.31
2023-08-02T21:39:20.736Z,98900.69
2023-08-02T21:41:48.973Z,98905.97
2023-08-02T21:44:19.287Z,98908.38
2023-08-02T21:46:48.084Z,98900.34
2023-08-02T21:49:16.250Z,98913.72
2023-08-02T21:51:44.736Z,98901.28
2023-08-02T21:54:13.662Z,98902.13
2023-08-02T21:56:41.844Z,98909.47
2023-08-02T21:59:09.935Z,98899.94
2023-08-02T22:01:39.975Z,98900.78
2023-08-02T22:04:09.235Z,98910.06
2023-08-02T22:06:37.411Z,98909.19
2023-08-02T22:09:06.774Z,98911.78
2023-08-02T22:11:35.259Z,98911.53
2023-08-02T22:14:03.467Z,98908.53
2023-08-02T22:16:34.002Z,98905.56
2023-08-02T22:19:02.453Z,98889.78
2023-08-02T22:21:30.717Z,98896.19
2023-08-02T22:23:59.079Z,98884.38
2023-08-02T22:26:27.513Z,98887.75
2023-08-02T22:28:55.632Z,98878.31
2023-08-02T22:31:23.955Z,98887.66
2023-08-02T22:33:52.692Z,98888.53
2023-08-02T22:36:20.889Z,98890.31
2023-08-02T22:38:49.833Z,98884.47
2023-08-02T22:41:18.511Z,98881.56
2023-08-02T22:43:47.189Z,98877.66
2023-08-02T22:46:15.486Z,98884.69
2023-08-02T22:51:15.228Z,98886.75
2023-08-02T22:53:44.041Z,98882.75
2023-08-02T22:56:12.331Z,98878.97
2023-08-02T22:58:40.487Z,98882.09
2023-08-02T23:01:11.157Z,98883.13
2023-08-02T23:03:44.248Z,98880.25
2023-08-02T23:06:22.451Z,98884.75
2023-08-02T23:08:50.768Z,98873.59
2023-08-02T23:11:21.070Z,98867.00
2023-08-02T23:13:51.881Z,98870.47
2023-08-02T23:16:23.165Z,98868.31
2023-08-02T23:18:53.081Z,98878.31
2023-08-02T23:21:21.635Z,98875.56
2023-08-02T23:23:51.460Z,98874.78
2023-08-02T23:26:28.755Z,98876.75
2023-08-02T23:29:01.036Z,98877.00
2023-08-02T23:31:29.692Z,98880.16
2023-08-02T23:34:00.419Z,98880.03
2023-08-02T23:36:28.832Z,98878.19
2023-08-02T23:38:57.272Z,98868.09
2023-08-02T23:41:25.800Z,98868.31
2023-08-02T23:43:53.948Z,98870.88
2023-08-02T23:46:22.092Z,98869.16
2023-08-02T23:48:50.538Z,98864.69
2023-08-02T23:51:18.647Z,98869.03
2023-08-02T23:53:46.895Z,98873.84
2023-08-02T23:56:15.748Z,98874.06
2023-08-02T23:58:43.840Z,98881.22
